createdAt,value
2018-06-23T00:01:51.537Z,101530.41
2018-06-23T00:04:20.026Z,101526.09
2018-06-23T00:06:48.392Z,101516.66
2018-06-23T00:09:16.716Z,101528.53
2018-06-23T00:11:45.053Z,101524.74
2018-06-23T00:14:13.428Z,101524.95
2018-06-23T00:16:41.811Z,101523.48
2018-06-23T00:19:10.148Z,101522.81
2018-06-23T00:21:38.492Z,101523.29
2018-06-23T00:24:07.180Z,101523.14
2018-06-23T00:26:35.537Z,101518.27
2018-06-23T00:29:03.970Z,101512.09
2018-06-23T00:31:32.293Z,101512.22
2018-06-23T00:34:00.628Z,101509.16
2018-06-23T00:36:28.970Z,101513.37
2018-06-23T00:38:57.287Z,101507.11
2018-06-23T00:41:26.198Z,101513.29
2018-06-23T00:43:54.585Z,101506.95
2018-06-23T00:46:22.965Z,101505.80
2018-06-23T00:48:52.155Z,101506.16
2018-06-23T00:51:20.522Z,101512.34
2018-06-23T00:53:48.916Z,101513.97
2018-06-23T00:56:17.299Z,101513.57
2018-06-23T00:58:56.999Z,101518.48
2018-06-23T01:01:25.331Z,101515.99
2018-06-23T01:03:53.820Z,101517.39
2018-06-23T01:06:22.149Z,101514.22
2018-06-23T01:08:50.472Z,101513.62
2018-06-23T01:11:18.806Z,101512.55
2018-06-23T01:13:47.139Z,101514.89
2018-06-23T01:16:15.460Z,101515.56
2018-06-23T01:18:43.807Z,101509.11
2018-06-23T01:21:12.165Z,101503.84
2018-06-23T01:23:40.482Z,101513.94
2018-06-23T01:26:08.842Z,101513.62
2018-06-23T01:28:37.151Z,101506.61
2018-06-23T01:31:05.539Z,101500.31
2018-06-23T01:33:33.844Z,101504.08
2018-06-23T01:36:02.201Z,101509.62
2018-06-23T01:38:30.552Z,101504.75
2018-06-23T01:40:58.892Z,101502.81
2018-06-23T01:43:27.238Z,101508.52
2018-06-23T01:45:55.587Z,101510.73
2018-06-23T01:48:23.914Z,101504.08
2018-06-23T01:50:52.272Z,101500.83
2018-06-23T01:53:20.636Z,101492.62
2018-06-23T01:55:50.599Z,101489.94
2018-06-23T01:58:18.928Z,101493.45
2018-06-23T02:00:47.387Z,101500.52
2018-06-23T02:03:15.710Z,101495.40
2018-06-23T02:05:44.051Z,101489.27
2018-06-23T02:08:12.380Z,101491.76
2018-06-23T02:10:40.722Z,101491.00
2018-06-23T02:13:09.272Z,101517.08
2018-06-23T02:15:42.906Z,101514.50
2018-06-23T02:18:16.544Z,101518.14
2018-06-23T02:20:50.362Z,101511.96
2018-06-23T02:23:23.884Z,101516.32
2018-06-23T02:25:57.595Z,101513.62
2018-06-23T02:28:31.360Z,101516.83
2018-06-23T02:31:04.879Z,101511.45
2018-06-23T02:33:38.591Z,101510.64
2018-06-23T02:36:06.969Z,101516.48
2018-06-23T02:38:35.304Z,101519.64
2018-06-23T02:41:03.663Z,101518.84
2018-06-23T02:43:32.030Z,101521.26
2018-06-23T02:46:00.349Z,101522.89
2018-06-23T02:48:28.701Z,101513.50
2018-06-23T02:50:57.029Z,101518.28
2018-06-23T02:53:25.388Z,101517.73
2018-06-23T02:55:53.721Z,101520.61
2018-06-23T02:58:22.218Z,101518.67
2018-06-23T03:00:50.535Z,101517.45
2018-06-23T03:03:18.871Z,101531.06
2018-06-23T03:05:47.205Z,101534.63
2018-06-23T03:08:15.682Z,101534.02
2018-06-23T03:10:44.033Z,101536.75
2018-06-23T03:13:12.428Z,101533.27
2018-06-23T03:15:40.754Z,101530.09
2018-06-23T03:18:09.131Z,101537.81
2018-06-23T03:20:37.465Z,101530.33
2018-06-23T03:23:05.804Z,101533.96
2018-06-23T03:25:34.165Z,101532.98
2018-06-23T03:28:02.498Z,101525.52
2018-06-23T03:30:30.819Z,101541.27
2018-06-23T03:32:59.171Z,101527.02
2018-06-23T03:35:27.526Z,101530.98
2018-06-23T03:37:55.854Z,101533.48
2018-06-23T03:40:24.203Z,101522.32
2018-06-23T03:42:52.531Z,101527.23
2018-06-23T03:45:20.893Z,101531.23
2018-06-23T03:47:49.224Z,101529.13
2018-06-23T03:50:17.584Z,101528.94
2018-06-23T03:52:45.927Z,101533.45
2018-06-23T03:55:14.274Z,101530.00
2018-06-23T03:57:42.600Z,101529.34
2018-06-23T04:00:10.941Z,101533.77
2018-06-23T04:02:39.312Z,101538.25
2018-06-23T04:05:07.706Z,101529.63
2018-06-23T04:07:36.095Z,101531.91
2018-06-23T04:10:04.449Z,101536.94
2018-06-23T04:12:32.768Z,101539.16
2018-06-23T04:15:01.098Z,101537.63
2018-06-23T04:17:29.613Z,101535.66
2018-06-23T04:19:57.943Z,101535.18
2018-06-23T04:22:26.299Z,101533.00
2018-06-23T04:24:54.622Z,101524.73
2018-06-23T04:27:22.944Z,101524.41
2018-06-23T04:29:51.496Z,101522.30
2018-06-23T04:32:19.843Z,101519.97
2018-06-23T04:34:48.351Z,101515.78
2018-06-23T04:37:16.659Z,101513.41
2018-06-23T04:39:45.041Z,101513.84
2018-06-23T04:42:13.420Z,101511.83
2018-06-23T04:44:42.618Z,101513.58
2018-06-23T04:47:10.956Z,101514.28
2018-06-23T04:49:39.334Z,101514.52
2018-06-23T04:52:07.662Z,101505.61
2018-06-23T04:54:36.000Z,101505.38
2018-06-23T04:57:04.337Z,101517.47
2018-06-23T04:59:32.651Z,101515.25
2018-06-23T05:02:01.066Z,101518.06
2018-06-23T05:04:29.414Z,101515.77
2018-06-23T05:06:57.792Z,101519.09
2018-06-23T05:09:26.130Z,101529.00
2018-06-23T05:11:54.441Z,101531.69
2018-06-23T05:14:22.786Z,101527.66
2018-06-23T05:16:51.140Z,101525.72
2018-06-23T05:19:19.490Z,101522.74
2018-06-23T05:21:47.826Z,101523.49
2018-06-23T05:24:16.208Z,101517.83
2018-06-23T05:26:44.553Z,101520.92
2018-06-23T05:29:12.898Z,101522.34
2018-06-23T05:31:41.258Z,101513.07
2018-06-23T05:34:09.589Z,101500.47
2018-06-23T05:36:37.947Z,101500.69
2018-06-23T05:39:08.289Z,101505.41
2018-06-23T05:41:36.632Z,101498.26
2018-06-23T05:44:05.246Z,101502.78
2018-06-23T05:46:33.713Z,101503.25
2018-06-23T05:49:02.043Z,101500.61
2018-06-23T05:51:30.420Z,101504.53
2018-06-23T05:53:59.519Z,101510.31
2018-06-23T05:56:27.903Z,101510.98
2018-06-23T05:58:56.755Z,101512.89
2018-06-23T06:01:25.101Z,101509.23
2018-06-23T06:03:53.446Z,101510.32
2018-06-23T06:06:21.791Z,101515.58
2018-06-23T06:08:50.135Z,101506.67
2018-06-23T06:11:18.451Z,101505.06
2018-06-23T06:13:46.793Z,101508.97
2018-06-23T06:16:15.196Z,101508.45
2018-06-23T06:18:43.483Z,101497.30
2018-06-23T06:21:11.819Z,101504.00
2018-06-23T06:23:40.233Z,101497.66
2018-06-23T06:26:08.584Z,101497.35
2018-06-23T06:28:36.931Z,101508.14
2018-06-23T06:31:05.274Z,101506.22
2018-06-23T06:33:33.615Z,101508.70
2018-06-23T06:36:01.942Z,101500.41
2018-06-23T06:38:30.308Z,101511.27
2018-06-23T06:40:58.655Z,101519.11
2018-06-23T06:43:26.966Z,101512.20
2018-06-23T06:45:55.329Z,101512.63
2018-06-23T06:48:23.642Z,101514.68
2018-06-23T06:50:51.991Z,101523.68
2018-06-23T06:53:20.330Z,101523.42
2018-06-23T06:55:48.682Z,101537.91
2018-06-23T06:58:17.055Z,101533.59
2018-06-23T07:00:45.485Z,101530.89
2018-06-23T07:03:13.810Z,101523.86
2018-06-23T07:05:42.723Z,101520.77
2018-06-23T07:08:11.063Z,101522.06
2018-06-23T07:10:39.413Z,101538.12
2018-06-23T07:13:07.771Z,101533.12
2018-06-23T07:15:36.114Z,101532.64
2018-06-23T07:18:04.525Z,101530.48
2018-06-23T07:20:32.864Z,101531.22
2018-06-23T07:23:01.203Z,101531.00
2018-06-23T07:25:29.534Z,101534.00
2018-06-23T07:27:57.872Z,101528.91
2018-06-23T07:30:26.204Z,101529.86
2018-06-23T07:32:54.545Z,101529.38
2018-06-23T07:35:23.246Z,101521.33
2018-06-23T07:37:51.610Z,101521.29
2018-06-23T07:40:19.925Z,101511.75
2018-06-23T07:42:48.400Z,101513.97
2018-06-23T07:45:16.747Z,101503.23
2018-06-23T07:47:45.071Z,101505.81
2018-06-23T07:50:13.607Z,101509.70
2018-06-23T07:52:41.991Z,101505.31
2018-06-23T07:55:10.440Z,101501.11
2018-06-23T07:57:38.788Z,101489.00
2018-06-23T08:00:07.127Z,101497.45
2018-06-23T08:02:35.476Z,101495.13
2018-06-23T08:05:04.093Z,101498.95
2018-06-23T08:07:32.473Z,101496.71
2018-06-23T08:10:00.879Z,101504.91
2018-06-23T08:12:29.278Z,101498.80
2018-06-23T08:14:57.673Z,101498.55
2018-06-23T08:17:26.043Z,101502.92
2018-06-23T08:19:54.408Z,101500.95
2018-06-23T08:22:22.784Z,101498.41
2018-06-23T08:24:51.149Z,101496.27
2018-06-23T08:27:19.472Z,101495.06
2018-06-23T08:29:47.815Z,101500.63
2018-06-23T08:32:16.333Z,101502.80
2018-06-23T08:34:44.679Z,101498.02
2018-06-23T08:37:13.092Z,101501.73
2018-06-23T08:39:41.406Z,101493.98
2018-06-23T08:42:09.703Z,101490.25
2018-06-23T08:44:38.063Z,101488.80
2018-06-23T08:47:06.459Z,101492.08
2018-06-23T08:49:34.807Z,101494.31
2018-06-23T08:52:03.129Z,101491.39
2018-06-23T08:54:31.506Z,101495.61
2018-06-23T08:56:59.916Z,101493.72
2018-06-23T08:59:28.248Z,101497.03
2018-06-23T09:01:56.635Z,101487.49
2018-06-23T09:04:25.089Z,101490.72
2018-06-23T09:06:53.434Z,101483.88
2018-06-23T09:09:21.887Z,101480.05
2018-06-23T09:11:50.220Z,101474.13
2018-06-23T09:14:18.531Z,101477.92
2018-06-23T09:16:46.912Z,101483.89
2018-06-23T09:19:15.250Z,101471.44
2018-06-23T09:21:43.576Z,101483.20
2018-06-23T09:24:11.916Z,101480.59
2018-06-23T09:26:40.273Z,101478.11
2018-06-23T09:29:08.613Z,101478.05
2018-06-23T09:31:37.666Z,101476.17
2018-06-23T09:34:06.036Z,101476.43
2018-06-23T09:36:34.370Z,101471.72
2018-06-23T09:39:02.716Z,101469.06
2018-06-23T09:41:31.051Z,101469.55
2018-06-23T09:43:59.376Z,101468.09
2018-06-23T09:46:27.770Z,101474.66
2018-06-23T09:48:56.123Z,101463.87
2018-06-23T09:51:24.694Z,101465.05
2018-06-23T09:53:53.007Z,101468.20
2018-06-23T09:56:21.734Z,101459.70
2018-06-23T09:58:50.102Z,101465.33
2018-06-23T10:01:18.473Z,101461.16
2018-06-23T10:03:46.831Z,101462.14
2018-06-23T10:06:15.180Z,101453.36
2018-06-23T10:08:43.534Z,101454.75
2018-06-23T10:11:11.863Z,101445.13
2018-06-23T10:13:40.449Z,101440.51
2018-06-23T10:16:08.891Z,101440.23
2018-06-23T10:18:37.220Z,101433.63
2018-06-23T10:21:05.581Z,101439.63
2018-06-23T10:23:33.924Z,101438.00
2018-06-23T10:26:02.305Z,101424.98
2018-06-23T10:28:30.628Z,101425.72
2018-06-23T10:30:58.975Z,101425.34
2018-06-23T10:33:27.379Z,101430.14
2018-06-23T10:35:55.719Z,101435.88
2018-06-23T10:38:24.113Z,101430.14
2018-06-23T10:40:52.416Z,101425.02
2018-06-23T10:43:20.862Z,101426.04
2018-06-23T10:45:49.355Z,101433.92
2018-06-23T10:48:17.805Z,101428.87
2018-06-23T10:50:46.136Z,101420.63
2018-06-23T10:53:14.490Z,101421.80
2018-06-23T10:55:42.825Z,101419.23
2018-06-23T10:58:11.177Z,101406.72
2018-06-23T11:00:39.804Z,101415.20
2018-06-23T11:03:08.212Z,101413.31
2018-06-23T11:05:36.532Z,101409.81
2018-06-23T11:08:04.942Z,101407.67
2018-06-23T11:10:33.272Z,101410.23
2018-06-23T11:13:01.639Z,101408.09
2018-06-23T11:15:30.009Z,101413.47
2018-06-23T11:17:58.439Z,101425.12
2018-06-23T11:20:26.819Z,101418.42
2018-06-23T11:22:55.146Z,101422.20
2018-06-23T11:25:23.509Z,101426.95
2018-06-23T11:27:51.855Z,101425.91
2018-06-23T11:30:20.175Z,101418.91
2018-06-23T11:32:48.515Z,101410.75
2018-06-23T11:35:16.855Z,101410.16
2018-06-23T11:37:45.204Z,101398.16
2018-06-23T11:40:13.533Z,101403.19
2018-06-23T11:42:41.848Z,101407.72
2018-06-23T11:45:10.251Z,101408.30
2018-06-23T11:47:38.727Z,101407.34
2018-06-23T11:50:07.146Z,101405.00
2018-06-23T11:52:35.524Z,101411.97
2018-06-23T11:55:03.898Z,101419.19
2018-06-23T11:57:32.232Z,101415.55
2018-06-23T12:00:00.564Z,101420.17
2018-06-23T12:02:28.917Z,101427.15
2018-06-23T12:04:57.268Z,101429.47
2018-06-23T12:07:25.600Z,101427.77
2018-06-23T12:09:53.941Z,101425.97
2018-06-23T12:12:22.256Z,101433.87
2018-06-23T12:14:50.659Z,101432.68
2018-06-23T12:17:18.984Z,101432.86
2018-06-23T12:19:47.322Z,101432.73
2018-06-23T12:22:15.648Z,101435.56
2018-06-23T12:24:43.999Z,101441.12
2018-06-23T12:27:12.495Z,101442.61
2018-06-23T12:29:41.172Z,101440.55
2018-06-23T12:32:09.642Z,101438.09
2018-06-23T12:34:38.139Z,101447.53
2018-06-23T12:37:06.592Z,101436.98
2018-06-23T12:39:35.000Z,101442.25
2018-06-23T12:42:03.351Z,101443.79
2018-06-23T12:44:31.692Z,101428.50
2018-06-23T12:47:00.048Z,101427.92
2018-06-23T12:49:28.496Z,101434.92
2018-06-23T12:51:56.923Z,101433.72
2018-06-23T12:54:25.691Z,101424.02
2018-06-23T12:56:54.693Z,101425.33
2018-06-23T12:59:23.045Z,101433.84
2018-06-23T13:01:51.526Z,101421.44
2018-06-23T13:04:19.902Z,101429.80
2018-06-23T13:06:48.273Z,101431.57
2018-06-23T13:09:16.790Z,101438.36
2018-06-23T13:11:45.135Z,101437.99
2018-06-23T13:14:13.491Z,101426.91
2018-06-23T13:16:41.959Z,101444.41
2018-06-23T13:19:10.276Z,101444.37
2018-06-23T13:21:38.588Z,101459.26
2018-06-23T13:24:07.014Z,101464.28
2018-06-23T13:26:35.338Z,101456.42
2018-06-23T13:29:03.794Z,101456.06
2018-06-23T13:31:32.128Z,101451.20
2018-06-23T13:34:00.448Z,101440.25
2018-06-23T13:36:28.832Z,101441.62
2018-06-23T13:38:57.143Z,101449.38
2018-06-23T13:41:25.548Z,101446.50
2018-06-23T13:43:53.900Z,101449.40
2018-06-23T13:46:22.452Z,101445.53
2018-06-23T13:48:50.826Z,101451.95
2018-06-23T13:51:19.435Z,101436.42
2018-06-23T13:53:48.064Z,101438.77
2018-06-23T13:56:16.399Z,101428.28
2018-06-23T13:58:44.757Z,101431.28
2018-06-23T14:01:13.130Z,101433.23
2018-06-23T14:03:41.791Z,101438.86
2018-06-23T14:06:10.265Z,101442.73
2018-06-23T14:08:38.944Z,101447.40
2018-06-23T14:11:07.334Z,101447.51
2018-06-23T14:13:35.694Z,101446.13
2018-06-23T14:16:04.174Z,101452.16
2018-06-23T14:18:33.116Z,101448.45
2018-06-23T14:21:01.470Z,101459.60
2018-06-23T14:23:29.873Z,101471.00
2018-06-23T14:25:58.223Z,101468.75
2018-06-23T14:28:27.145Z,101468.94
2018-06-23T14:30:55.494Z,101465.42
2018-06-23T14:33:23.825Z,101466.42
2018-06-23T14:35:52.706Z,101463.92
2018-06-23T14:38:21.071Z,101448.61
2018-06-23T14:40:49.451Z,101457.23
2018-06-23T14:43:17.833Z,101459.00
2018-06-23T14:45:46.340Z,101455.80
2018-06-23T14:48:14.832Z,101446.98
2018-06-23T14:50:43.235Z,101450.69
2018-06-23T14:53:11.614Z,101447.58
2018-06-23T14:55:40.001Z,101448.04
2018-06-23T14:58:08.385Z,101451.13
2018-06-23T15:00:36.921Z,101459.66
2018-06-23T15:03:05.272Z,101454.87
2018-06-23T15:05:33.928Z,101460.81
2018-06-23T15:08:13.671Z,101469.53
2018-06-23T15:11:56.511Z,101471.55
2018-06-23T15:14:24.869Z,101471.08
2018-06-23T15:16:53.210Z,101478.82
2018-06-23T15:19:21.563Z,101490.41
2018-06-23T15:21:49.968Z,101493.39
2018-06-23T15:24:18.859Z,101503.71
2018-06-23T15:26:47.217Z,101502.31
2018-06-23T15:29:15.568Z,101506.55
2018-06-23T15:31:44.022Z,101505.84
2018-06-23T15:34:12.652Z,101503.13
2018-06-23T15:36:41.005Z,101496.63
2018-06-23T15:39:10.239Z,101492.81
2018-06-23T15:41:38.739Z,101491.45
2018-06-23T15:44:07.098Z,101497.37
2018-06-23T15:46:35.751Z,101497.13
2018-06-23T15:49:04.409Z,101495.39
2018-06-23T15:51:32.778Z,101493.95
2018-06-23T15:54:01.295Z,101494.33
2018-06-23T15:56:29.965Z,101495.20
2018-06-23T15:58:58.329Z,101490.91
2018-06-23T16:01:26.778Z,101490.04
2018-06-23T16:03:55.216Z,101484.37
2018-06-23T16:06:23.778Z,101480.41
2018-06-23T16:08:52.244Z,101478.31
2018-06-23T16:11:20.565Z,101481.25
2018-06-23T16:13:48.904Z,101473.78
2018-06-23T16:16:17.255Z,101478.16
2018-06-23T16:18:45.735Z,101477.44
2018-06-23T16:21:14.348Z,101474.73
2018-06-23T16:23:42.773Z,101472.54
2018-06-23T16:26:11.211Z,101480.30
2018-06-23T16:28:39.656Z,101474.42
2018-06-23T16:31:07.951Z,101479.27
2018-06-23T16:33:36.284Z,101477.56
2018-06-23T16:36:05.251Z,101473.20
2018-06-23T16:38:33.621Z,101470.42
2018-06-23T16:41:01.973Z,101470.92
2018-06-23T16:43:30.310Z,101474.33
2018-06-23T16:45:58.760Z,101473.44
2018-06-23T16:48:27.113Z,101476.49
2018-06-23T16:50:55.481Z,101476.49
2018-06-23T16:53:24.184Z,101475.78
2018-06-23T16:55:52.571Z,101483.26
2018-06-23T16:58:20.932Z,101473.39
2018-06-23T17:00:49.290Z,101481.98
2018-06-23T17:03:17.648Z,101478.89
2018-06-23T17:05:46.069Z,101479.03
2018-06-23T17:08:14.451Z,101480.11
2018-06-23T17:10:42.797Z,101482.80
2018-06-23T17:13:11.175Z,101484.30
2018-06-23T17:15:39.556Z,101476.27
2018-06-23T17:18:08.906Z,101479.59
2018-06-23T17:20:37.491Z,101469.88
2018-06-23T17:23:05.978Z,101472.59
2018-06-23T17:25:34.344Z,101483.73
2018-06-23T17:28:02.779Z,101487.70
2018-06-23T17:30:31.158Z,101481.27
2018-06-23T17:32:59.694Z,101482.55
2018-06-23T17:35:28.119Z,101480.94
2018-06-23T17:37:56.499Z,101485.73
2018-06-23T17:40:24.917Z,101482.80
2018-06-23T17:42:53.293Z,101478.25
2018-06-23T17:45:22.360Z,101482.86
2018-06-23T17:47:50.742Z,101486.16
2018-06-23T17:50:19.095Z,101481.94
2018-06-23T17:52:47.451Z,101483.53
2018-06-23T17:55:15.835Z,101484.25
2018-06-23T17:57:44.395Z,101487.45
2018-06-23T18:00:12.728Z,101483.55
2018-06-23T18:02:41.272Z,101487.89
2018-06-23T18:05:09.632Z,101484.02
2018-06-23T18:07:37.962Z,101483.30
2018-06-23T18:10:06.660Z,101480.89
2018-06-23T18:12:35.201Z,101478.28
2018-06-23T18:15:03.683Z,101479.88
2018-06-23T18:17:32.100Z,101478.19
2018-06-23T18:20:00.585Z,101475.01
2018-06-23T18:22:30.496Z,101481.64
2018-06-23T18:24:58.838Z,101485.30
2018-06-23T18:27:27.212Z,101481.64
2018-06-23T18:29:55.632Z,101486.73
2018-06-23T18:32:24.020Z,101492.92
2018-06-23T18:34:52.391Z,101485.20
2018-06-23T18:37:20.776Z,101486.39
2018-06-23T18:39:49.141Z,101488.70
2018-06-23T18:42:17.492Z,101491.17
2018-06-23T18:44:45.946Z,101489.88
2018-06-23T18:47:14.325Z,101501.17
2018-06-23T18:49:42.672Z,101504.58
2018-06-23T18:52:11.047Z,101500.36
2018-06-23T18:54:39.388Z,101498.95
2018-06-23T18:57:07.777Z,101500.79
2018-06-23T18:59:36.148Z,101503.47
2018-06-23T19:02:04.561Z,101503.67
2018-06-23T19:04:32.939Z,101499.28
2018-06-23T19:07:01.880Z,101505.69
2018-06-23T19:09:30.207Z,101495.70
2018-06-23T19:11:58.590Z,101505.92
2018-06-23T19:14:26.991Z,101505.19
2018-06-23T19:16:55.460Z,101505.05
2018-06-23T19:19:24.303Z,101504.40
2018-06-23T19:21:52.830Z,101509.23
2018-06-23T19:24:21.305Z,101508.02
2018-06-23T19:26:49.984Z,101508.70
2018-06-23T19:29:18.344Z,101510.89
2018-06-23T19:31:46.705Z,101515.22
2018-06-23T19:34:15.061Z,101515.48
2018-06-23T19:36:43.408Z,101514.83
2018-06-23T19:39:12.158Z,101527.67
2018-06-23T19:41:40.508Z,101520.63
2018-06-23T19:44:09.024Z,101519.83
2018-06-23T19:46:37.334Z,101517.87
2018-06-23T19:49:05.749Z,101524.02
2018-06-23T19:51:34.078Z,101516.00
2018-06-23T19:54:02.472Z,101525.11
2018-06-23T19:56:30.803Z,101522.55
2018-06-23T19:58:59.211Z,101526.90
2018-06-23T20:01:27.504Z,101523.38
2018-06-23T20:03:55.849Z,101525.91
2018-06-23T20:06:24.200Z,101520.98
2018-06-23T20:08:52.561Z,101526.12
2018-06-23T20:11:20.891Z,101528.25
2018-06-23T20:13:49.304Z,101528.34
2018-06-23T20:16:17.634Z,101527.86
2018-06-23T20:18:45.957Z,101532.39
2018-06-23T20:21:14.295Z,101531.13
2018-06-23T20:23:42.674Z,101527.73
2018-06-23T20:26:11.049Z,101532.44
2018-06-23T20:28:39.501Z,101525.03
2018-06-23T20:31:07.914Z,101526.30
2018-06-23T20:33:36.219Z,101531.22
2018-06-23T20:36:04.680Z,101522.17
2018-06-23T20:38:33.025Z,101525.03
2018-06-23T20:41:01.372Z,101527.73
2018-06-23T20:43:29.746Z,101531.38
2018-06-23T20:45:58.194Z,101522.33
2018-06-23T20:48:26.557Z,101532.91
2018-06-23T20:50:54.919Z,101538.91
2018-06-23T20:53:23.300Z,101535.67
2018-06-23T20:55:51.674Z,101538.66
2018-06-23T20:58:20.012Z,101532.02
2018-06-23T21:00:48.359Z,101536.07
2018-06-23T21:03:16.726Z,101537.11
2018-06-23T21:05:45.127Z,101536.23
2018-06-23T21:08:13.496Z,101535.28
2018-06-23T21:10:47.200Z,101537.70
2018-06-23T21:13:15.541Z,101533.27
2018-06-23T21:15:43.869Z,101530.83
2018-06-23T21:18:12.273Z,101533.00
2018-06-23T21:20:40.633Z,101527.92
2018-06-23T21:23:09.011Z,101523.69
2018-06-23T21:25:37.454Z,101530.83
2018-06-23T21:28:05.933Z,101530.03
2018-06-23T21:30:34.295Z,101530.95
2018-06-23T21:33:02.590Z,101534.05
2018-06-23T21:35:30.914Z,101535.80
2018-06-23T21:37:59.244Z,101539.32
2018-06-23T21:40:27.647Z,101530.41
2018-06-23T21:42:56.015Z,101540.12
2018-06-23T21:45:24.436Z,101539.20
2018-06-23T21:47:52.777Z,101532.98
2018-06-23T21:50:21.092Z,101536.83
2018-06-23T21:52:49.520Z,101534.05
2018-06-23T21:55:17.882Z,101538.22
2018-06-23T21:57:46.273Z,101529.81
2018-06-23T22:00:37.119Z,101530.56
2018-06-23T22:03:07.545Z,101535.13
2018-06-23T22:05:36.092Z,101529.34
2018-06-23T22:08:04.982Z,101538.66
2018-06-23T22:10:33.389Z,101528.73
2018-06-23T22:13:01.724Z,101524.91
2018-06-23T22:15:30.065Z,101531.69
2018-06-23T22:17:58.404Z,101529.81
2018-06-23T22:20:26.726Z,101530.29
2018-06-23T22:22:55.066Z,101525.81
2018-06-23T22:25:23.773Z,101525.34
2018-06-23T22:27:52.130Z,101529.11
2018-06-23T22:30:21.244Z,101528.20
2018-06-23T22:32:49.573Z,101526.62
2018-06-23T22:35:17.989Z,101532.28
2018-06-23T22:37:46.309Z,101530.54
2018-06-23T22:40:14.643Z,101529.47
2018-06-23T22:42:42.975Z,101530.66
2018-06-23T22:45:11.304Z,101528.84
2018-06-23T22:47:39.683Z,101523.17
2018-06-23T22:50:08.903Z,101529.98
2018-06-23T22:52:37.581Z,101529.31
2018-06-23T22:55:06.324Z,101538.20
2018-06-23T22:57:34.697Z,101526.50
2018-06-23T23:00:03.050Z,101527.69
2018-06-23T23:02:31.387Z,101536.73
2018-06-23T23:04:59.738Z,101529.91
2018-06-23T23:07:28.726Z,101533.52
2018-06-23T23:09:57.512Z,101529.91
2018-06-23T23:12:25.842Z,101528.64
2018-06-23T23:14:54.174Z,101527.38
2018-06-23T23:17:22.553Z,101527.69
2018-06-23T23:19:50.883Z,101529.72
2018-06-23T23:22:19.344Z,101522.45
2018-06-23T23:24:47.640Z,101526.89
2018-06-23T23:27:16.233Z,101517.46
2018-06-23T23:29:44.583Z,101517.06
2018-06-23T23:32:12.924Z,101526.39
2018-06-23T23:34:41.273Z,101511.84
2018-06-23T23:37:09.652Z,101505.58
2018-06-23T23:39:37.982Z,101508.70
2018-06-23T23:42:06.308Z,101515.44
2018-06-23T23:44:34.615Z,101507.20
2018-06-23T23:47:02.993Z,101503.84
2018-06-23T23:49:31.374Z,101499.31
2018-06-23T23:51:59.744Z,101499.44
2018-06-23T23:54:28.092Z,101496.27
2018-06-23T23:56:56.421Z,101493.45
2018-06-23T23:59:24.749Z,101494.01
